createdAt,value
2024-03-15T00:01:54.922Z,99.62
2024-03-15T00:04:57.829Z,99.43
2024-03-15T00:08:00.411Z,99.22
2024-03-15T00:11:06.560Z,99.37
2024-03-15T00:14:11.285Z,99.36
2024-03-15T00:17:14.512Z,99.96
2024-03-15T00:20:17.239Z,100.00
2024-03-15T00:23:20.135Z,100.00
2024-03-15T00:26:22.875Z,100.00
2024-03-15T00:29:25.709Z,100.00
2024-03-15T00:32:28.768Z,100.00
2024-03-15T00:35:31.799Z,100.00
2024-03-15T00:38:34.429Z,100.00
2024-03-15T00:41:37.340Z,100.00
2024-03-15T00:44:39.870Z,100.00
2024-03-15T00:47:42.972Z,100.00
2024-03-15T00:50:45.631Z,100.00
2024-03-15T00:53:48.619Z,100.00
2024-03-15T00:56:51.207Z,100.00
2024-03-15T00:59:54.207Z,100.00
2024-03-15T01:02:56.873Z,100.00
2024-03-15T01:06:00.237Z,100.00
2024-03-15T01:09:02.840Z,100.00
2024-03-15T01:12:06.131Z,100.00
2024-03-15T01:15:09.132Z,100.00
2024-03-15T01:18:12.710Z,100.00
2024-03-15T01:21:15.398Z,100.00
2024-03-15T01:24:18.383Z,100.00
2024-03-15T01:27:21.055Z,100.00
2024-03-15T01:30:24.029Z,100.00
2024-03-15T01:33:29.378Z,100.00
2024-03-15T01:36:32.352Z,100.00
2024-03-15T01:39:35.034Z,100.00
2024-03-15T01:42:38.094Z,100.00
2024-03-15T01:45:42.055Z,100.00
2024-03-15T01:48:45.931Z,100.00
2024-03-15T01:51:49.028Z,100.00
2024-03-15T01:54:56.089Z,100.00
2024-03-15T01:58:00.911Z,100.00
2024-03-15T02:01:04.276Z,100.00
2024-03-15T02:04:08.236Z,100.00
2024-03-15T02:07:10.917Z,100.00
2024-03-15T02:10:16.525Z,100.00
2024-03-15T02:13:19.360Z,100.00
2024-03-15T02:16:22.508Z,100.00
2024-03-15T02:19:26.051Z,100.00
2024-03-15T02:22:29.017Z,100.00
2024-03-15T02:25:31.842Z,100.00
2024-03-15T02:28:34.831Z,100.00
2024-03-15T02:31:37.490Z,100.00
2024-03-15T02:34:40.468Z,100.00
2024-03-15T02:37:43.180Z,100.00
2024-03-15T02:40:46.106Z,100.00
2024-03-15T02:43:48.826Z,100.00
2024-03-15T02:46:51.852Z,100.00
2024-03-15T02:49:57.258Z,100.00
2024-03-15T02:53:01.244Z,100.00
2024-03-15T02:56:04.189Z,100.00
2024-03-15T02:59:08.413Z,100.00
2024-03-15T03:02:11.081Z,100.00
2024-03-15T03:05:13.947Z,100.00
2024-03-15T03:08:16.624Z,100.00
2024-03-15T03:11:19.556Z,100.00
2024-03-15T03:14:22.192Z,100.00
2024-03-15T03:17:26.786Z,100.00
2024-03-15T03:20:34.139Z,100.00
2024-03-15T03:23:37.089Z,100.00
2024-03-15T03:26:39.675Z,100.00
2024-03-15T03:29:42.844Z,100.00
2024-03-15T03:32:45.509Z,100.00
2024-03-15T03:35:48.427Z,100.00
2024-03-15T03:38:51.094Z,100.00
2024-03-15T03:41:56.027Z,100.00
2024-03-15T03:44:59.247Z,100.00
2024-03-15T03:48:02.211Z,100.00
2024-03-15T03:51:05.592Z,100.00
2024-03-15T03:54:10.429Z,100.00
2024-03-15T03:57:35.234Z,100.00
2024-03-15T04:00:46.031Z,100.00
2024-03-15T04:03:52.153Z,100.00
2024-03-15T04:06:54.763Z,100.00
2024-03-15T04:09:58.451Z,100.00
2024-03-15T04:13:01.439Z,100.00
2024-03-15T04:16:05.520Z,100.00
2024-03-15T04:19:11.200Z,100.00
2024-03-15T04:22:14.470Z,100.00
2024-03-15T04:25:18.170Z,100.00
2024-03-15T04:28:21.104Z,100.00
2024-03-15T04:31:24.105Z,100.00
2024-03-15T04:34:26.941Z,100.00
2024-03-15T04:37:30.047Z,100.00
2024-03-15T04:40:32.976Z,100.00
2024-03-15T04:43:36.082Z,100.00
2024-03-15T04:46:38.992Z,100.00
2024-03-15T04:49:41.629Z,100.00
2024-03-15T04:52:44.540Z,100.00
2024-03-15T04:55:47.215Z,100.00
2024-03-15T04:58:50.159Z,100.00
2024-03-15T05:01:53.683Z,100.00
2024-03-15T05:04:56.564Z,100.00
2024-03-15T05:07:59.208Z,100.00
2024-03-15T05:11:03.262Z,100.00
2024-03-15T05:14:06.909Z,100.00
2024-03-15T05:17:09.789Z,100.00
2024-03-15T05:20:14.689Z,100.00
2024-03-15T05:23:18.685Z,100.00
2024-03-15T05:26:21.955Z,100.00
2024-03-15T05:29:24.816Z,100.00
2024-03-15T05:32:29.551Z,100.00
2024-03-15T05:35:32.584Z,100.00
2024-03-15T05:38:35.210Z,100.00
2024-03-15T05:41:40.210Z,100.00
2024-03-15T05:44:42.780Z,100.00
2024-03-15T05:47:46.022Z,100.00
2024-03-15T05:50:49.065Z,100.00
2024-03-15T05:53:52.010Z,100.00
2024-03-15T05:56:54.561Z,100.00
2024-03-15T05:59:57.502Z,100.00
2024-03-15T06:03:04.203Z,100.00
2024-03-15T06:06:09.936Z,100.00
2024-03-15T06:09:14.412Z,100.00
2024-03-15T06:12:17.667Z,100.00
2024-03-15T06:15:20.773Z,100.00
2024-03-15T06:18:23.888Z,100.00
2024-03-15T06:21:28.132Z,100.00
2024-03-15T06:24:31.241Z,100.00
2024-03-15T06:27:34.102Z,100.00
2024-03-15T06:30:44.570Z,100.00
2024-03-15T06:33:50.313Z,100.00
2024-03-15T06:36:55.843Z,100.00
2024-03-15T06:39:58.710Z,100.00
2024-03-15T06:43:04.716Z,100.00
2024-03-15T06:46:11.036Z,100.00
2024-03-15T06:49:14.432Z,100.00
2024-03-15T06:52:36.205Z,100.00
2024-03-15T06:55:39.381Z,99.89
2024-03-15T06:58:44.326Z,99.12
2024-03-15T07:01:47.254Z,99.33
2024-03-15T07:04:52.609Z,99.18
2024-03-15T07:07:55.495Z,98.17
2024-03-15T07:10:58.115Z,96.24
2024-03-15T07:14:05.397Z,94.24
2024-03-15T07:17:10.394Z,92.47
2024-03-15T07:20:14.812Z,90.93
2024-03-15T07:23:17.925Z,88.65
2024-03-15T07:26:20.849Z,89.46
2024-03-15T07:29:23.510Z,87.42
2024-03-15T07:32:26.608Z,85.92
2024-03-15T07:35:29.257Z,87.40
2024-03-15T07:38:32.458Z,85.37
2024-03-15T07:41:35.761Z,85.07
2024-03-15T07:44:38.938Z,82.58
2024-03-15T07:47:41.545Z,83.74
2024-03-15T07:50:44.587Z,82.56
2024-03-15T07:53:47.563Z,82.31
2024-03-15T07:56:51.026Z,83.38
2024-03-15T07:59:54.224Z,84.49
2024-03-15T08:02:59.689Z,82.42
2024-03-15T08:06:06.448Z,79.68
2024-03-15T08:09:12.534Z,76.60
2024-03-15T08:12:16.400Z,75.64
2024-03-15T08:15:19.467Z,77.04
2024-03-15T08:18:22.753Z,76.23
2024-03-15T08:21:26.043Z,73.47
2024-03-15T08:24:29.330Z,69.14
2024-03-15T08:27:32.649Z,68.29
2024-03-15T08:30:35.764Z,67.46
2024-03-15T08:33:38.614Z,66.23
2024-03-15T08:36:42.281Z,64.95
2024-03-15T08:39:45.380Z,62.94
2024-03-15T08:42:48.327Z,60.30
2024-03-15T08:45:51.309Z,59.05
2024-03-15T08:48:55.135Z,58.44
2024-03-15T08:51:57.826Z,58.89
2024-03-15T08:55:00.849Z,57.04
2024-03-15T08:58:03.651Z,56.08
2024-03-15T09:01:06.933Z,57.51
2024-03-15T09:04:09.890Z,56.70
2024-03-15T09:07:13.007Z,55.81
2024-03-15T09:10:16.329Z,54.98
2024-03-15T09:13:20.491Z,54.54
2024-03-15T09:16:23.538Z,56.83
2024-03-15T09:19:26.936Z,56.51
2024-03-15T09:22:29.692Z,54.27
2024-03-15T09:25:32.898Z,54.72
2024-03-15T09:28:39.529Z,53.86
2024-03-15T09:32:00.396Z,53.46
2024-03-15T09:35:06.232Z,54.14
2024-03-15T09:38:09.096Z,54.19
2024-03-15T09:41:13.256Z,54.80
2024-03-15T09:44:18.024Z,56.11
2024-03-15T09:47:21.024Z,56.71
2024-03-15T09:50:30.723Z,56.51
2024-03-15T09:53:33.528Z,54.37
2024-03-15T09:56:38.424Z,55.87
2024-03-15T09:59:42.595Z,54.53
2024-03-15T10:02:53.206Z,54.15
2024-03-15T10:05:57.620Z,54.42
2024-03-15T10:09:05.277Z,54.22
2024-03-15T10:12:11.376Z,54.05
2024-03-15T10:15:16.225Z,54.24
2024-03-15T10:18:19.169Z,54.86
2024-03-15T10:21:21.866Z,54.47
2024-03-15T10:24:25.734Z,55.19
2024-03-15T10:27:29.032Z,56.23
2024-03-15T10:30:33.275Z,55.14
2024-03-15T10:33:36.625Z,54.78
2024-03-15T10:36:41.363Z,55.66
2024-03-15T10:39:44.306Z,55.26
2024-03-15T10:42:49.738Z,54.52
2024-03-15T10:45:52.509Z,54.71
2024-03-15T10:48:57.466Z,52.12
2024-03-15T10:52:00.368Z,52.01
2024-03-15T10:55:06.471Z,50.05
2024-03-15T10:58:10.345Z,50.71
2024-03-15T11:01:14.202Z,49.74
2024-03-15T11:04:17.282Z,49.83
2024-03-15T11:07:21.942Z,49.48
2024-03-15T11:10:24.771Z,50.77
2024-03-15T11:13:34.637Z,51.28
2024-03-15T11:16:37.346Z,52.07
2024-03-15T11:19:49.648Z,52.70
2024-03-15T11:22:56.400Z,52.80
2024-03-15T11:25:59.235Z,52.52
2024-03-15T11:29:03.617Z,52.28
2024-03-15T11:32:15.100Z,53.10
2024-03-15T11:35:18.869Z,52.40
2024-03-15T11:38:21.939Z,53.15
2024-03-15T11:41:24.672Z,52.97
2024-03-15T11:44:29.097Z,54.01
2024-03-15T11:47:33.385Z,54.76
2024-03-15T11:50:37.362Z,54.95
2024-03-15T11:53:40.007Z,54.60
2024-03-15T11:56:44.296Z,54.76
2024-03-15T11:59:47.929Z,54.13
2024-03-15T12:02:54.203Z,54.03
2024-03-15T12:05:59.671Z,53.81
2024-03-15T12:09:06.282Z,53.03
2024-03-15T12:12:09.170Z,53.11
2024-03-15T12:15:29.589Z,52.75
2024-03-15T12:18:32.648Z,52.65
2024-03-15T12:21:39.995Z,51.49
2024-03-15T12:24:43.026Z,51.11
2024-03-15T12:27:45.832Z,49.96
2024-03-15T12:30:50.787Z,49.70
2024-03-15T12:33:53.695Z,50.44
2024-03-15T12:36:57.673Z,50.51
2024-03-15T12:40:00.434Z,49.57
2024-03-15T12:43:04.222Z,51.07
2024-03-15T12:46:12.491Z,49.75
2024-03-15T12:49:15.429Z,49.74
2024-03-15T12:52:18.122Z,50.12
2024-03-15T12:55:21.143Z,49.25
2024-03-15T12:58:23.840Z,47.63
2024-03-15T13:01:26.990Z,48.23
2024-03-15T13:04:29.901Z,47.18
2024-03-15T13:07:33.568Z,48.13
2024-03-15T13:10:36.208Z,48.07
2024-03-15T13:13:39.351Z,47.25
2024-03-15T13:16:42.604Z,47.68
2024-03-15T13:19:45.607Z,47.38
2024-03-15T13:22:54.229Z,47.44
2024-03-15T13:25:58.933Z,47.73
2024-03-15T13:29:01.569Z,48.49
2024-03-15T13:32:05.830Z,48.40
2024-03-15T13:35:19.179Z,48.67
2024-03-15T13:38:22.126Z,48.97
2024-03-15T13:41:25.992Z,48.69
2024-03-15T13:44:29.141Z,48.47
2024-03-15T13:48:15.578Z,48.42
2024-03-15T13:51:18.554Z,48.49
2024-03-15T13:54:21.241Z,48.33
2024-03-15T13:57:24.187Z,48.87
2024-03-15T14:00:36.017Z,48.43
2024-03-15T14:03:39.370Z,48.00
2024-03-15T14:06:42.827Z,48.32
2024-03-15T14:09:45.822Z,48.16
2024-03-15T14:12:50.544Z,48.30
2024-03-15T14:15:53.718Z,48.10
2024-03-15T14:18:59.454Z,48.51
2024-03-15T14:22:05.293Z,48.71
2024-03-15T14:25:08.177Z,48.71
2024-03-15T14:28:11.622Z,48.50
2024-03-15T14:31:14.396Z,48.62
2024-03-15T14:34:17.369Z,49.04
2024-03-15T14:37:21.665Z,48.84
2024-03-15T14:40:28.176Z,48.92
2024-03-15T14:43:31.101Z,49.05
2024-03-15T14:46:36.610Z,48.22
2024-03-15T14:49:39.327Z,47.79
2024-03-15T14:52:42.329Z,48.04
2024-03-15T14:55:44.980Z,48.30
2024-03-15T14:58:49.357Z,49.29
2024-03-15T15:01:52.302Z,49.61
2024-03-15T15:04:55.670Z,50.32
2024-03-15T15:08:04.498Z,50.22
2024-03-15T15:11:07.505Z,51.02
2024-03-15T15:14:10.378Z,51.20
2024-03-15T15:17:14.308Z,51.60
2024-03-15T15:20:19.742Z,51.58
2024-03-15T15:23:24.624Z,52.07
2024-03-15T15:26:27.546Z,51.84
2024-03-15T15:29:30.529Z,52.06
2024-03-15T15:32:33.657Z,52.25
2024-03-15T15:35:36.535Z,52.15
2024-03-15T15:38:39.654Z,52.43
2024-03-15T15:41:43.691Z,52.35
2024-03-15T15:44:46.401Z,52.90
2024-03-15T15:47:49.305Z,53.15
2024-03-15T15:50:51.947Z,53.17
2024-03-15T15:53:55.850Z,53.55
2024-03-15T15:56:58.451Z,53.60
2024-03-15T16:00:01.942Z,54.26
2024-03-15T16:03:08.509Z,54.48
2024-03-15T16:06:11.499Z,54.54
2024-03-15T16:09:16.289Z,54.60
2024-03-15T16:12:19.250Z,54.92
2024-03-15T16:15:22.935Z,55.53
2024-03-15T16:18:25.925Z,56.21
2024-03-15T16:21:28.724Z,56.87
2024-03-15T16:24:31.835Z,58.18
2024-03-15T16:27:34.642Z,57.76
2024-03-15T16:30:37.659Z,59.19
2024-03-15T16:33:40.407Z,60.77
2024-03-15T16:36:43.488Z,61.72
2024-03-15T16:39:46.416Z,62.06
2024-03-15T16:42:53.977Z,63.56
2024-03-15T16:45:58.507Z,63.25
2024-03-15T16:49:02.779Z,64.87
2024-03-15T16:52:05.802Z,64.92
2024-03-15T16:55:13.077Z,64.39
2024-03-15T16:58:16.404Z,65.11
2024-03-15T17:01:19.386Z,66.12
2024-03-15T17:04:22.318Z,67.38
2024-03-15T17:07:25.939Z,67.51
2024-03-15T17:10:28.685Z,67.77
2024-03-15T17:13:31.746Z,68.43
2024-03-15T17:16:34.621Z,68.29
2024-03-15T17:19:40.248Z,68.24
2024-03-15T17:22:42.926Z,69.01
2024-03-15T17:25:50.946Z,70.04
2024-03-15T17:28:53.894Z,70.55
2024-03-15T17:31:56.783Z,70.56
2024-03-15T17:35:00.701Z,70.66
2024-03-15T17:38:04.224Z,70.65
2024-03-15T17:41:07.043Z,72.08
2024-03-15T17:44:10.063Z,72.96
2024-03-15T17:47:12.974Z,73.19
2024-03-15T17:50:15.864Z,73.24
2024-03-15T17:53:18.548Z,74.95
2024-03-15T17:56:24.957Z,75.19
2024-03-15T17:59:27.907Z,75.49
2024-03-15T18:02:30.980Z,75.15
2024-03-15T18:05:34.165Z,75.50
2024-03-15T18:08:36.789Z,76.40
2024-03-15T18:11:40.153Z,76.73
2024-03-15T18:14:44.813Z,74.98
2024-03-15T18:17:48.270Z,75.09
2024-03-15T18:20:51.227Z,74.04
2024-03-15T18:23:54.604Z,75.52
2024-03-15T18:26:57.340Z,75.42
2024-03-15T18:30:00.599Z,74.06
2024-03-15T18:33:04.148Z,73.69
2024-03-15T18:36:07.716Z,73.49
2024-03-15T18:39:10.313Z,73.55
2024-03-15T18:42:13.291Z,73.99
2024-03-15T18:45:16.267Z,75.96
2024-03-15T18:48:19.963Z,75.67
2024-03-15T18:51:23.553Z,75.04
2024-03-15T18:54:26.535Z,76.42
2024-03-15T18:57:29.159Z,76.90
2024-03-15T19:00:34.379Z,77.26
2024-03-15T19:03:38.970Z,76.81
2024-03-15T19:06:42.238Z,77.30
2024-03-15T19:09:47.166Z,76.12
2024-03-15T19:12:50.281Z,76.00
2024-03-15T19:15:53.039Z,76.97
2024-03-15T19:18:56.203Z,75.87
2024-03-15T19:21:59.273Z,74.67
2024-03-15T19:25:02.706Z,75.47
2024-03-15T19:28:05.767Z,75.35
2024-03-15T19:31:08.810Z,75.50
2024-03-15T19:34:11.649Z,75.76
2024-03-15T19:37:14.716Z,75.73
2024-03-15T19:40:17.626Z,75.68
2024-03-15T19:43:22.537Z,76.26
2024-03-15T19:46:26.146Z,76.19
2024-03-15T19:49:29.351Z,76.25
2024-03-15T19:52:32.610Z,76.04
2024-03-15T19:55:39.367Z,76.03
2024-03-15T19:58:43.366Z,76.32
2024-03-15T20:01:46.476Z,76.75
2024-03-15T20:04:50.133Z,77.59
2024-03-15T20:07:53.088Z,78.14
2024-03-15T20:10:56.804Z,78.22
2024-03-15T20:14:02.575Z,78.36
2024-03-15T20:17:06.417Z,78.79
2024-03-15T20:20:11.514Z,79.62
2024-03-15T20:23:14.512Z,80.83
2024-03-15T20:26:18.301Z,80.18
2024-03-15T20:29:21.201Z,80.78
2024-03-15T20:32:24.037Z,80.10
2024-03-15T20:35:29.206Z,79.71
2024-03-15T20:38:32.384Z,79.81
2024-03-15T20:41:35.530Z,80.33
2024-03-15T20:44:39.489Z,79.39
2024-03-15T20:47:43.470Z,79.52
2024-03-15T20:50:46.269Z,78.61
2024-03-15T20:53:52.840Z,78.47
2024-03-15T20:56:55.793Z,77.27
2024-03-15T20:59:58.790Z,77.61
2024-03-15T21:03:01.643Z,78.08
2024-03-15T21:06:06.420Z,78.33
2024-03-15T21:09:10.666Z,77.85
2024-03-15T21:12:13.994Z,78.48
2024-03-15T21:15:17.371Z,78.50
2024-03-15T21:18:21.413Z,80.28
2024-03-15T21:21:24.255Z,81.40
2024-03-15T21:24:27.255Z,82.36
2024-03-15T21:27:31.696Z,82.04
2024-03-15T21:30:34.671Z,83.42
2024-03-15T21:33:37.456Z,84.99
2024-03-15T21:36:40.726Z,85.15
2024-03-15T21:39:43.399Z,85.15
2024-03-15T21:42:48.630Z,84.90
2024-03-15T21:45:53.915Z,85.28
2024-03-15T21:48:56.962Z,86.35
2024-03-15T21:51:59.898Z,86.45
2024-03-15T21:55:05.704Z,86.56
2024-03-15T21:58:09.428Z,87.17
2024-03-15T22:01:13.683Z,87.32
2024-03-15T22:04:20.171Z,87.47
2024-03-15T22:07:22.770Z,87.09
2024-03-15T22:10:25.685Z,87.83
2024-03-15T22:13:29.817Z,88.32
2024-03-15T22:16:36.879Z,87.25
2024-03-15T22:19:39.465Z,87.83
2024-03-15T22:22:42.374Z,88.61
2024-03-15T22:25:51.498Z,89.97
2024-03-15T22:28:54.686Z,87.90
2024-03-15T22:31:57.278Z,88.19
2024-03-15T22:35:00.309Z,88.70
2024-03-15T22:38:04.285Z,89.52
2024-03-15T22:41:07.474Z,90.82
2024-03-15T22:44:10.090Z,89.43
2024-03-15T22:47:13.038Z,90.86
2024-03-15T22:50:15.822Z,91.82
2024-03-15T22:53:18.761Z,92.24
2024-03-15T22:56:21.417Z,92.97
2024-03-15T22:59:24.311Z,93.34
2024-03-15T23:02:28.073Z,93.36
2024-03-15T23:05:30.897Z,93.63
2024-03-15T23:08:33.644Z,94.46
2024-03-15T23:11:36.571Z,93.69
2024-03-15T23:14:39.129Z,94.23
2024-03-15T23:17:42.074Z,93.41
2024-03-15T23:20:49.949Z,92.67
2024-03-15T23:23:53.007Z,94.30
2024-03-15T23:26:55.802Z,93.57
2024-03-15T23:29:58.673Z,93.91
2024-03-15T23:33:01.972Z,94.32
2024-03-15T23:36:05.236Z,94.43
2024-03-15T23:39:16.793Z,93.41
2024-03-15T23:42:20.030Z,94.56
2024-03-15T23:45:22.782Z,95.04
2024-03-15T23:48:28.121Z,94.62
2024-03-15T23:51:30.808Z,94.09
2024-03-15T23:54:33.823Z,94.10
2024-03-15T23:57:37.033Z,94.44
